sensor_id;sensor_type;location;lat;lon;timestamp;P1;durP1;ratioP1;P2;durP2;ratioP2
8327;SDS011;4201;48.754;8.864;2023-04-15T00:00:11;13.67;;;8.13;;
8327;SDS011;4201;48.754;8.864;2023-04-15T00:02:37;16.20;;;8.40;;
8327;SDS011;4201;48.754;8.864;2023-04-15T00:05:03;17.83;;;8.00;;
8327;SDS011;4201;48.754;8.864;2023-04-15T00:07:30;21.10;;;8.67;;
8327;SDS011;4201;48.754;8.864;2023-04-15T00:09:57;11.97;;;8.87;;
8327;SDS011;4201;48.754;8.864;2023-04-15T00:12:23;11.23;;;8.37;;
8327;SDS011;4201;48.754;8.864;2023-04-15T00:14:49;13.13;;;7.97;;
8327;SDS011;4201;48.754;8.864;2023-04-15T00:17:17;14.80;;;9.10;;
8327;SDS011;4201;48.754;8.864;2023-04-15T00:19:43;13.67;;;8.57;;
8327;SDS011;4201;48.754;8.864;2023-04-15T00:22:10;19.30;;;8.70;;
8327;SDS011;4201;48.754;8.864;2023-04-15T00:24:36;13.13;;;6.90;;
8327;SDS011;4201;48.754;8.864;2023-04-15T00:27:02;18.27;;;7.90;;
8327;SDS011;4201;48.754;8.864;2023-04-15T00:29:29;13.07;;;7.73;;
8327;SDS011;4201;48.754;8.864;2023-04-15T00:31:56;10.63;;;7.00;;
8327;SDS011;4201;48.754;8.864;2023-04-15T00:34:23;15.27;;;7.93;;
8327;SDS011;4201;48.754;8.864;2023-04-15T00:36:50;10.20;;;7.00;;
8327;SDS011;4201;48.754;8.864;2023-04-15T00:39:16;11.53;;;8.30;;
8327;SDS011;4201;48.754;8.864;2023-04-15T00:41:42;11.40;;;7.93;;
8327;SDS011;4201;48.754;8.864;2023-04-15T00:44:09;12.00;;;7.63;;
8327;SDS011;4201;48.754;8.864;2023-04-15T00:46:36;12.57;;;8.03;;
8327;SDS011;4201;48.754;8.864;2023-04-15T00:49:03;13.10;;;7.47;;
8327;SDS011;4201;48.754;8.864;2023-04-15T00:51:31;19.17;;;8.47;;
8327;SDS011;4201;48.754;8.864;2023-04-15T00:54:00;11.40;;;7.37;;
8327;SDS011;4201;48.754;8.864;2023-04-15T00:56:26;12.67;;;7.20;;
8327;SDS011;4201;48.754;8.864;2023-04-15T00:58:53;11.07;;;6.60;;
8327;SDS011;4201;48.754;8.864;2023-04-15T01:01:20;12.90;;;7.60;;
8327;SDS011;4201;48.754;8.864;2023-04-15T01:03:47;12.97;;;7.10;;
8327;SDS011;4201;48.754;8.864;2023-04-15T01:06:15;13.70;;;8.63;;
8327;SDS011;4201;48.754;8.864;2023-04-15T01:08:42;16.60;;;9.90;;
8327;SDS011;4201;48.754;8.864;2023-04-15T01:11:09;20.37;;;9.57;;
8327;SDS011;4201;48.754;8.864;2023-04-15T01:13:35;20.73;;;11.30;;
8327;SDS011;4201;48.754;8.864;2023-04-15T01:16:02;18.17;;;9.47;;
8327;SDS011;4201;48.754;8.864;2023-04-15T01:18:28;15.33;;;8.80;;
8327;SDS011;4201;48.754;8.864;2023-04-15T01:20:55;17.53;;;7.83;;
8327;SDS011;4201;48.754;8.864;2023-04-15T01:23:22;15.37;;;7.70;;
8327;SDS011;4201;48.754;8.864;2023-04-15T01:25:49;17.60;;;7.07;;
8327;SDS011;4201;48.754;8.864;2023-04-15T01:28:16;8.90;;;6.10;;
8327;SDS011;4201;48.754;8.864;2023-04-15T01:30:42;13.80;;;7.57;;
8327;SDS011;4201;48.754;8.864;2023-04-15T01:33:09;14.17;;;6.43;;
8327;SDS011;4201;48.754;8.864;2023-04-15T01:35:35;11.90;;;7.40;;
8327;SDS011;4201;48.754;8.864;2023-04-15T01:38:02;13.73;;;6.67;;
8327;SDS011;4201;48.754;8.864;2023-04-15T01:40:30;10.43;;;6.37;;
8327;SDS011;4201;48.754;8.864;2023-04-15T01:42:57;13.87;;;6.80;;
8327;SDS011;4201;48.754;8.864;2023-04-15T01:45:23;14.43;;;8.00;;
8327;SDS011;4201;48.754;8.864;2023-04-15T01:47:50;10.77;;;7.17;;
8327;SDS011;4201;48.754;8.864;2023-04-15T01:50:16;14.40;;;7.60;;
8327;SDS011;4201;48.754;8.864;2023-04-15T01:52:43;12.17;;;7.53;;
8327;SDS011;4201;48.754;8.864;2023-04-15T01:55:10;13.37;;;7.90;;
8327;SDS011;4201;48.754;8.864;2023-04-15T01:57:36;11.83;;;6.13;;
8327;SDS011;4201;48.754;8.864;2023-04-15T02:00:04;12.63;;;6.97;;
8327;SDS011;4201;48.754;8.864;2023-04-15T02:02:31;13.77;;;6.77;;
8327;SDS011;4201;48.754;8.864;2023-04-15T02:04:58;13.10;;;6.87;;
8327;SDS011;4201;48.754;8.864;2023-04-15T02:07:24;15.50;;;6.80;;
8327;SDS011;4201;48.754;8.864;2023-04-15T02:09:52;19.80;;;8.90;;
8327;SDS011;4201;48.754;8.864;2023-04-15T02:12:19;10.87;;;7.43;;
8327;SDS011;4201;48.754;8.864;2023-04-15T02:14:46;18.40;;;8.57;;
8327;SDS011;4201;48.754;8.864;2023-04-15T02:17:13;12.93;;;7.60;;
8327;SDS011;4201;48.754;8.864;2023-04-15T02:19:40;15.07;;;8.03;;
8327;SDS011;4201;48.754;8.864;2023-04-15T02:22:07;12.17;;;8.27;;
8327;SDS011;4201;48.754;8.864;2023-04-15T02:24:33;15.00;;;9.77;;
8327;SDS011;4201;48.754;8.864;2023-04-15T02:26:59;13.33;;;9.60;;
8327;SDS011;4201;48.754;8.864;2023-04-15T02:29:26;11.10;;;8.30;;
8327;SDS011;4201;48.754;8.864;2023-04-15T02:31:52;13.13;;;7.77;;
8327;SDS011;4201;48.754;8.864;2023-04-15T02:34:20;8.37;;;5.00;;
8327;SDS011;4201;48.754;8.864;2023-04-15T02:36:46;15.47;;;8.80;;
8327;SDS011;4201;48.754;8.864;2023-04-15T02:39:13;12.50;;;8.73;;
8327;SDS011;4201;48.754;8.864;2023-04-15T02:41:40;14.77;;;9.00;;
8327;SDS011;4201;48.754;8.864;2023-04-15T02:44:07;17.20;;;8.90;;
8327;SDS011;4201;48.754;8.864;2023-04-15T02:46:34;17.97;;;8.40;;
8327;SDS011;4201;48.754;8.864;2023-04-15T02:49:00;18.13;;;8.23;;
8327;SDS011;4201;48.754;8.864;2023-04-15T02:51:29;13.00;;;7.90;;
8327;SDS011;4201;48.754;8.864;2023-04-15T02:53:56;10.53;;;7.27;;
8327;SDS011;4201;48.754;8.864;2023-04-15T02:56:22;10.83;;;7.73;;
8327;SDS011;4201;48.754;8.864;2023-04-15T02:58:48;11.43;;;7.73;;
8327;SDS011;4201;48.754;8.864;2023-04-15T03:01:15;12.13;;;7.90;;
8327;SDS011;4201;48.754;8.864;2023-04-15T03:03:41;15.60;;;7.40;;
8327;SDS011;4201;48.754;8.864;2023-04-15T03:06:07;13.63;;;6.40;;
8327;SDS011;4201;48.754;8.864;2023-04-15T03:08:35;9.57;;;7.10;;
8327;SDS011;4201;48.754;8.864;2023-04-15T03:11:01;14.10;;;7.77;;
8327;SDS011;4201;48.754;8.864;2023-04-15T03:13:27;10.50;;;6.80;;
8327;SDS011;4201;48.754;8.864;2023-04-15T03:15:54;17.70;;;7.20;;
8327;SDS011;4201;48.754;8.864;2023-04-15T03:18:20;12.10;;;8.20;;
8327;SDS011;4201;48.754;8.864;2023-04-15T03:20:47;9.57;;;6.10;;
8327;SDS011;4201;48.754;8.864;2023-04-15T03:23:13;12.53;;;7.77;;
8327;SDS011;4201;48.754;8.864;2023-04-15T03:25:41;14.13;;;5.93;;
8327;SDS011;4201;48.754;8.864;2023-04-15T03:28:07;13.13;;;6.57;;
8327;SDS011;4201;48.754;8.864;2023-04-15T03:30:33;13.20;;;5.60;;
8327;SDS011;4201;48.754;8.864;2023-04-15T03:33:00;7.53;;;5.10;;
8327;SDS011;4201;48.754;8.864;2023-04-15T03:35:26;9.40;;;5.30;;
8327;SDS011;4201;48.754;8.864;2023-04-15T03:37:52;12.00;;;5.40;;
8327;SDS011;4201;48.754;8.864;2023-04-15T03:40:19;15.90;;;8.50;;
8327;SDS011;4201;48.754;8.864;2023-04-15T03:42:47;10.50;;;7.50;;
8327;SDS011;4201;48.754;8.864;2023-04-15T03:45:13;12.67;;;8.23;;
8327;SDS011;4201;48.754;8.864;2023-04-15T03:47:39;12.57;;;7.30;;
8327;SDS011;4201;48.754;8.864;2023-04-15T03:50:06;11.10;;;7.30;;
8327;SDS011;4201;48.754;8.864;2023-04-15T03:52:33;10.07;;;6.83;;
8327;SDS011;4201;48.754;8.864;2023-04-15T03:54:59;11.30;;;6.10;;
8327;SDS011;4201;48.754;8.864;2023-04-15T03:57:25;11.00;;;7.13;;
8327;SDS011;4201;48.754;8.864;2023-04-15T03:59:53;11.87;;;6.10;;
8327;SDS011;4201;48.754;8.864;2023-04-15T04:02:19;12.20;;;6.97;;
8327;SDS011;4201;48.754;8.864;2023-04-15T04:04:47;13.70;;;7.00;;
8327;SDS011;4201;48.754;8.864;2023-04-15T04:07:14;10.43;;;6.77;;
8327;SDS011;4201;48.754;8.864;2023-04-15T04:09:40;10.97;;;6.90;;
8327;SDS011;4201;48.754;8.864;2023-04-15T04:12:06;13.93;;;6.67;;
8327;SDS011;4201;48.754;8.864;2023-04-15T04:14:33;13.70;;;7.00;;
8327;SDS011;4201;48.754;8.864;2023-04-15T04:17:00;10.30;;;5.30;;
8327;SDS011;4201;48.754;8.864;2023-04-15T04:19:26;12.03;;;5.63;;
8327;SDS011;4201;48.754;8.864;2023-04-15T04:21:53;9.53;;;5.00;;
8327;SDS011;4201;48.754;8.864;2023-04-15T04:24:20;8.77;;;5.27;;
8327;SDS011;4201;48.754;8.864;2023-04-15T04:26:46;9.43;;;5.47;;
8327;SDS011;4201;48.754;8.864;2023-04-15T04:29:12;10.43;;;5.97;;
8327;SDS011;4201;48.754;8.864;2023-04-15T04:31:38;8.70;;;5.87;;
8327;SDS011;4201;48.754;8.864;2023-04-15T04:34:06;14.03;;;5.87;;
8327;SDS011;4201;48.754;8.864;2023-04-15T04:36:32;10.40;;;6.90;;
8327;SDS011;4201;48.754;8.864;2023-04-15T04:38:58;15.23;;;7.20;;
8327;SDS011;4201;48.754;8.864;2023-04-15T04:41:25;10.07;;;6.87;;
8327;SDS011;4201;48.754;8.864;2023-04-15T04:43:51;11.40;;;6.20;;
8327;SDS011;4201;48.754;8.864;2023-04-15T04:46:17;12.10;;;6.13;;
8327;SDS011;4201;48.754;8.864;2023-04-15T04:48:44;10.67;;;6.97;;
8327;SDS011;4201;48.754;8.864;2023-04-15T04:51:13;19.13;;;7.10;;
8327;SDS011;4201;48.754;8.864;2023-04-15T04:53:39;13.63;;;6.53;;
8327;SDS011;4201;48.754;8.864;2023-04-15T04:56:07;8.63;;;6.70;;
8327;SDS011;4201;48.754;8.864;2023-04-15T04:58:33;11.07;;;6.13;;
8327;SDS011;4201;48.754;8.864;2023-04-15T05:00:59;10.33;;;6.80;;
8327;SDS011;4201;48.754;8.864;2023-04-15T05:03:26;9.33;;;6.37;;
8327;SDS011;4201;48.754;8.864;2023-04-15T05:05:53;8.50;;;5.23;;
8327;SDS011;4201;48.754;8.864;2023-04-15T05:08:20;7.80;;;5.10;;
8327;SDS011;4201;48.754;8.864;2023-04-15T05:10:47;9.60;;;5.00;;
8327;SDS011;4201;48.754;8.864;2023-04-15T05:13:13;9.07;;;4.33;;
8327;SDS011;4201;48.754;8.864;2023-04-15T05:15:39;8.17;;;5.30;;
8327;SDS011;4201;48.754;8.864;2023-04-15T05:18:07;10.27;;;6.13;;
8327;SDS011;4201;48.754;8.864;2023-04-15T05:20:33;9.97;;;6.80;;
8327;SDS011;4201;48.754;8.864;2023-04-15T05:22:59;11.43;;;5.83;;
8327;SDS011;4201;48.754;8.864;2023-04-15T05:25:27;8.53;;;5.33;;
8327;SDS011;4201;48.754;8.864;2023-04-15T05:27:53;10.23;;;5.43;;
8327;SDS011;4201;48.754;8.864;2023-04-15T05:30:19;10.53;;;5.17;;
8327;SDS011;4201;48.754;8.864;2023-04-15T05:32:46;7.30;;;4.43;;
8327;SDS011;4201;48.754;8.864;2023-04-15T05:35:12;5.93;;;4.27;;
8327;SDS011;4201;48.754;8.864;2023-04-15T05:37:39;10.97;;;4.50;;
8327;SDS011;4201;48.754;8.864;2023-04-15T05:40:06;7.77;;;4.40;;
8327;SDS011;4201;48.754;8.864;2023-04-15T05:42:35;8.67;;;5.17;;
8327;SDS011;4201;48.754;8.864;2023-04-15T05:45:02;9.70;;;4.50;;
8327;SDS011;4201;48.754;8.864;2023-04-15T05:47:29;9.63;;;5.30;;
8327;SDS011;4201;48.754;8.864;2023-04-15T05:49:55;8.50;;;5.40;;
8327;SDS011;4201;48.754;8.864;2023-04-15T05:52:23;8.43;;;5.10;;
8327;SDS011;4201;48.754;8.864;2023-04-15T05:54:49;9.77;;;5.40;;
8327;SDS011;4201;48.754;8.864;2023-04-15T05:57:15;11.30;;;5.77;;
8327;SDS011;4201;48.754;8.864;2023-04-15T05:59:43;10.60;;;6.30;;
8327;SDS011;4201;48.754;8.864;2023-04-15T06:02:09;11.00;;;5.93;;
8327;SDS011;4201;48.754;8.864;2023-04-15T06:04:36;8.60;;;5.80;;
8327;SDS011;4201;48.754;8.864;2023-04-15T06:07:02;8.97;;;5.70;;
8327;SDS011;4201;48.754;8.864;2023-04-15T06:09:28;8.57;;;5.50;;
8327;SDS011;4201;48.754;8.864;2023-04-15T06:11:54;11.60;;;6.17;;
8327;SDS011;4201;48.754;8.864;2023-04-15T06:14:21;8.20;;;5.43;;
8327;SDS011;4201;48.754;8.864;2023-04-15T06:16:49;10.30;;;5.90;;
8327;SDS011;4201;48.754;8.864;2023-04-15T06:19:15;9.10;;;5.13;;
8327;SDS011;4201;48.754;8.864;2023-04-15T06:21:42;11.27;;;4.93;;
8327;SDS011;4201;48.754;8.864;2023-04-15T06:24:08;7.67;;;4.70;;
8327;SDS011;4201;48.754;8.864;2023-04-15T06:26:35;10.67;;;6.03;;
8327;SDS011;4201;48.754;8.864;2023-04-15T06:29:01;9.60;;;5.20;;
8327;SDS011;4201;48.754;8.864;2023-04-15T06:31:27;9.60;;;5.80;;
8327;SDS011;4201;48.754;8.864;2023-04-15T06:33:55;8.50;;;5.33;;
8327;SDS011;4201;48.754;8.864;2023-04-15T06:36:21;9.83;;;5.47;;
8327;SDS011;4201;48.754;8.864;2023-04-15T06:38:47;16.07;;;5.70;;
8327;SDS011;4201;48.754;8.864;2023-04-15T06:41:14;8.93;;;5.03;;
8327;SDS011;4201;48.754;8.864;2023-04-15T06:43:40;10.07;;;5.30;;
8327;SDS011;4201;48.754;8.864;2023-04-15T06:46:07;7.60;;;4.77;;
8327;SDS011;4201;48.754;8.864;2023-04-15T06:48:34;8.60;;;4.70;;
8327;SDS011;4201;48.754;8.864;2023-04-15T06:51:02;8.00;;;4.80;;
8327;SDS011;4201;48.754;8.864;2023-04-15T06:53:28;7.83;;;4.53;;
8327;SDS011;4201;48.754;8.864;2023-04-15T06:55:54;7.50;;;4.90;;
8327;SDS011;4201;48.754;8.864;2023-04-15T06:58:20;9.93;;;5.77;;
8327;SDS011;4201;48.754;8.864;2023-04-15T07:00:47;10.17;;;5.10;;
8327;SDS011;4201;48.754;8.864;2023-04-15T07:03:13;6.73;;;4.80;;
8327;SDS011;4201;48.754;8.864;2023-04-15T07:05:40;10.97;;;5.50;;
8327;SDS011;4201;48.754;8.864;2023-04-15T07:08:07;8.37;;;5.17;;
8327;SDS011;4201;48.754;8.864;2023-04-15T07:10:33;8.00;;;4.27;;
8327;SDS011;4201;48.754;8.864;2023-04-15T07:13:00;8.60;;;5.13;;
8327;SDS011;4201;48.754;8.864;2023-04-15T07:15:26;9.20;;;4.50;;
8327;SDS011;4201;48.754;8.864;2023-04-15T07:17:53;9.27;;;5.10;;
8327;SDS011;4201;48.754;8.864;2023-04-15T07:20:20;8.07;;;5.60;;
8327;SDS011;4201;48.754;8.864;2023-04-15T07:22:46;9.30;;;5.93;;
8327;SDS011;4201;48.754;8.864;2023-04-15T07:25:14;7.87;;;4.67;;
8327;SDS011;4201;48.754;8.864;2023-04-15T07:27:41;10.17;;;7.10;;
8327;SDS011;4201;48.754;8.864;2023-04-15T07:30:08;10.83;;;7.80;;
8327;SDS011;4201;48.754;8.864;2023-04-15T07:32:35;11.40;;;8.70;;
8327;SDS011;4201;48.754;8.864;2023-04-15T07:35:01;25.20;;;21.00;;
8327;SDS011;4201;48.754;8.864;2023-04-15T07:37:27;9.07;;;4.10;;
8327;SDS011;4201;48.754;8.864;2023-04-15T07:39:54;14.73;;;5.03;;
8327;SDS011;4201;48.754;8.864;2023-04-15T07:42:22;8.33;;;5.03;;
8327;SDS011;4201;48.754;8.864;2023-04-15T07:44:48;10.00;;;4.03;;
8327;SDS011;4201;48.754;8.864;2023-04-15T07:47:17;6.23;;;3.57;;
8327;SDS011;4201;48.754;8.864;2023-04-15T07:49:46;8.63;;;4.30;;
8327;SDS011;4201;48.754;8.864;2023-04-15T07:52:17;9.90;;;3.93;;
8327;SDS011;4201;48.754;8.864;2023-04-15T07:54:43;8.20;;;4.73;;
8327;SDS011;4201;48.754;8.864;2023-04-15T07:57:10;12.00;;;3.90;;
8327;SDS011;4201;48.754;8.864;2023-04-15T07:59:37;7.97;;;4.47;;
8327;SDS011;4201;48.754;8.864;2023-04-15T08:02:04;8.80;;;4.37;;
8327;SDS011;4201;48.754;8.864;2023-04-15T08:04:30;7.13;;;3.50;;
8327;SDS011;4201;48.754;8.864;2023-04-15T08:06:57;10.83;;;6.80;;
8327;SDS011;4201;48.754;8.864;2023-04-15T08:09:24;12.33;;;3.70;;
8327;SDS011;4201;48.754;8.864;2023-04-15T08:11:51;7.43;;;4.03;;
8327;SDS011;4201;48.754;8.864;2023-04-15T08:14:17;6.17;;;3.10;;
8327;SDS011;4201;48.754;8.864;2023-04-15T08:16:44;6.80;;;4.10;;
8327;SDS011;4201;48.754;8.864;2023-04-15T08:19:11;9.20;;;4.50;;
8327;SDS011;4201;48.754;8.864;2023-04-15T08:21:37;8.00;;;4.10;;
8327;SDS011;4201;48.754;8.864;2023-04-15T08:24:04;11.60;;;5.03;;
8327;SDS011;4201;48.754;8.864;2023-04-15T08:26:31;10.83;;;3.93;;
8327;SDS011;4201;48.754;8.864;2023-04-15T08:28:58;7.83;;;4.37;;
8327;SDS011;4201;48.754;8.864;2023-04-15T08:31:25;7.93;;;3.53;;
8327;SDS011;4201;48.754;8.864;2023-04-15T08:33:53;8.93;;;4.30;;
8327;SDS011;4201;48.754;8.864;2023-04-15T08:36:20;9.30;;;3.70;;
8327;SDS011;4201;48.754;8.864;2023-04-15T08:38:47;8.13;;;4.57;;
8327;SDS011;4201;48.754;8.864;2023-04-15T08:41:17;8.10;;;3.10;;
8327;SDS011;4201;48.754;8.864;2023-04-15T08:43:46;7.00;;;2.67;;
8327;SDS011;4201;48.754;8.864;2023-04-15T08:46:14;8.30;;;2.67;;
8327;SDS011;4201;48.754;8.864;2023-04-15T08:48:41;6.70;;;3.23;;
8327;SDS011;4201;48.754;8.864;2023-04-15T08:51:09;7.43;;;3.57;;
8327;SDS011;4201;48.754;8.864;2023-04-15T08:53:35;10.30;;;2.80;;
8327;SDS011;4201;48.754;8.864;2023-04-15T08:56:03;8.23;;;3.23;;
8327;SDS011;4201;48.754;8.864;2023-04-15T08:58:31;5.87;;;3.10;;
8327;SDS011;4201;48.754;8.864;2023-04-15T09:00:57;7.47;;;3.17;;
8327;SDS011;4201;48.754;8.864;2023-04-15T09:03:23;7.90;;;2.50;;
8327;SDS011;4201;48.754;8.864;2023-04-15T09:05:50;6.50;;;2.40;;
8327;SDS011;4201;48.754;8.864;2023-04-15T09:08:18;6.37;;;2.90;;
8327;SDS011;4201;48.754;8.864;2023-04-15T09:10:44;9.20;;;3.00;;
8327;SDS011;4201;48.754;8.864;2023-04-15T09:13:10;7.73;;;2.77;;
8327;SDS011;4201;48.754;8.864;2023-04-15T09:15:37;7.67;;;2.73;;
8327;SDS011;4201;48.754;8.864;2023-04-15T09:18:03;7.00;;;3.37;;
8327;SDS011;4201;48.754;8.864;2023-04-15T09:20:30;8.33;;;2.70;;
8327;SDS011;4201;48.754;8.864;2023-04-15T09:23:10;4.73;;;2.13;;
8327;SDS011;4201;48.754;8.864;2023-04-15T09:25:38;8.13;;;2.30;;
8327;SDS011;4201;48.754;8.864;2023-04-15T09:28:06;4.60;;;2.37;;
8327;SDS011;4201;48.754;8.864;2023-04-15T09:30:32;8.50;;;2.80;;
8327;SDS011;4201;48.754;8.864;2023-04-15T09:33:00;7.53;;;2.97;;
8327;SDS011;4201;48.754;8.864;2023-04-15T09:35:27;5.90;;;2.57;;
8327;SDS011;4201;48.754;8.864;2023-04-15T09:37:53;7.33;;;2.50;;
8327;SDS011;4201;48.754;8.864;2023-04-15T09:40:30;6.20;;;2.70;;
8327;SDS011;4201;48.754;8.864;2023-04-15T09:42:58;8.47;;;2.77;;
8327;SDS011;4201;48.754;8.864;2023-04-15T09:45:24;7.50;;;2.33;;
8327;SDS011;4201;48.754;8.864;2023-04-15T09:47:51;7.13;;;2.60;;
8327;SDS011;4201;48.754;8.864;2023-04-15T09:50:18;4.67;;;2.40;;
8327;SDS011;4201;48.754;8.864;2023-04-15T09:52:44;6.27;;;2.10;;
8327;SDS011;4201;48.754;8.864;2023-04-15T09:55:11;8.07;;;2.60;;
8327;SDS011;4201;48.754;8.864;2023-04-15T09:57:38;6.30;;;2.27;;
8327;SDS011;4201;48.754;8.864;2023-04-15T10:00:07;5.30;;;2.30;;
8327;SDS011;4201;48.754;8.864;2023-04-15T10:02:35;5.60;;;3.20;;
8327;SDS011;4201;48.754;8.864;2023-04-15T10:05:02;4.93;;;2.70;;
8327;SDS011;4201;48.754;8.864;2023-04-15T10:07:28;12.10;;;3.20;;
8327;SDS011;4201;48.754;8.864;2023-04-15T10:09:55;4.60;;;2.50;;
8327;SDS011;4201;48.754;8.864;2023-04-15T10:12:21;12.07;;;2.87;;
8327;SDS011;4201;48.754;8.864;2023-04-15T10:14:51;18.97;;;3.40;;
8327;SDS011;4201;48.754;8.864;2023-04-15T10:17:22;5.37;;;2.30;;
8327;SDS011;4201;48.754;8.864;2023-04-15T10:19:52;12.70;;;1.97;;
8327;SDS011;4201;48.754;8.864;2023-04-15T10:22:19;6.17;;;2.93;;
8327;SDS011;4201;48.754;8.864;2023-04-15T10:24:46;4.73;;;2.63;;
8327;SDS011;4201;48.754;8.864;2023-04-15T10:27:13;5.17;;;2.27;;
8327;SDS011;4201;48.754;8.864;2023-04-15T10:29:40;4.90;;;2.47;;
8327;SDS011;4201;48.754;8.864;2023-04-15T10:32:07;5.00;;;2.50;;
8327;SDS011;4201;48.754;8.864;2023-04-15T10:34:35;7.60;;;2.37;;
8327;SDS011;4201;48.754;8.864;2023-04-15T10:37:02;9.80;;;3.50;;
8327;SDS011;4201;48.754;8.864;2023-04-15T10:39:39;8.87;;;2.60;;
8327;SDS011;4201;48.754;8.864;2023-04-15T10:42:06;3.80;;;2.17;;
8327;SDS011;4201;48.754;8.864;2023-04-15T10:44:34;7.63;;;3.17;;
8327;SDS011;4201;48.754;8.864;2023-04-15T10:47:03;8.23;;;3.37;;
8327;SDS011;4201;48.754;8.864;2023-04-15T10:49:30;5.70;;;2.73;;
8327;SDS011;4201;48.754;8.864;2023-04-15T10:51:58;10.40;;;3.03;;
8327;SDS011;4201;48.754;8.864;2023-04-15T10:54:30;6.60;;;3.70;;
8327;SDS011;4201;48.754;8.864;2023-04-15T10:57:06;5.60;;;2.70;;
8327;SDS011;4201;48.754;8.864;2023-04-15T10:59:35;6.50;;;3.00;;
8327;SDS011;4201;48.754;8.864;2023-04-15T11:02:02;4.90;;;3.10;;
8327;SDS011;4201;48.754;8.864;2023-04-15T11:07:15;4.90;;;2.50;;
8327;SDS011;4201;48.754;8.864;2023-04-15T11:09:57;6.33;;;3.40;;
8327;SDS011;4201;48.754;8.864;2023-04-15T11:12:31;4.50;;;2.97;;
8327;SDS011;4201;48.754;8.864;2023-04-15T11:14:58;10.50;;;3.70;;
8327;SDS011;4201;48.754;8.864;2023-04-15T11:17:26;6.30;;;3.70;;
8327;SDS011;4201;48.754;8.864;2023-04-15T11:19:52;10.60;;;4.00;;
8327;SDS011;4201;48.754;8.864;2023-04-15T11:22:20;8.53;;;4.00;;
8327;SDS011;4201;48.754;8.864;2023-04-15T11:24:46;8.17;;;3.63;;
8327;SDS011;4201;48.754;8.864;2023-04-15T11:27:19;10.40;;;4.00;;
8327;SDS011;4201;48.754;8.864;2023-04-15T11:29:45;8.00;;;3.83;;
8327;SDS011;4201;48.754;8.864;2023-04-15T11:32:11;10.80;;;4.83;;
8327;SDS011;4201;48.754;8.864;2023-04-15T11:34:38;9.37;;;4.13;;
8327;SDS011;4201;48.754;8.864;2023-04-15T11:37:05;6.43;;;3.50;;
8327;SDS011;4201;48.754;8.864;2023-04-15T11:39:33;5.73;;;3.50;;
8327;SDS011;4201;48.754;8.864;2023-04-15T11:41:59;6.10;;;3.10;;
8327;SDS011;4201;48.754;8.864;2023-04-15T11:44:25;6.10;;;3.43;;
8327;SDS011;4201;48.754;8.864;2023-04-15T11:46:53;10.90;;;4.70;;
8327;SDS011;4201;48.754;8.864;2023-04-15T11:49:26;7.43;;;4.03;;
8327;SDS011;4201;48.754;8.864;2023-04-15T11:51:53;7.60;;;3.90;;
8327;SDS011;4201;48.754;8.864;2023-04-15T11:54:19;12.40;;;3.87;;
8327;SDS011;4201;48.754;8.864;2023-04-15T11:56:50;11.63;;;4.77;;
8327;SDS011;4201;48.754;8.864;2023-04-15T11:59:16;6.80;;;3.90;;
8327;SDS011;4201;48.754;8.864;2023-04-15T12:01:43;9.90;;;4.00;;
8327;SDS011;4201;48.754;8.864;2023-04-15T12:04:10;9.90;;;4.00;;
8327;SDS011;4201;48.754;8.864;2023-04-15T12:06:37;12.00;;;5.67;;
8327;SDS011;4201;48.754;8.864;2023-04-15T12:09:06;10.80;;;4.97;;
8327;SDS011;4201;48.754;8.864;2023-04-15T12:11:34;10.20;;;4.63;;
8327;SDS011;4201;48.754;8.864;2023-04-15T12:14:06;7.73;;;4.87;;
8327;SDS011;4201;48.754;8.864;2023-04-15T12:16:34;12.80;;;5.90;;
8327;SDS011;4201;48.754;8.864;2023-04-15T12:19:04;14.30;;;4.73;;
8327;SDS011;4201;48.754;8.864;2023-04-15T12:21:32;14.87;;;5.10;;
8327;SDS011;4201;48.754;8.864;2023-04-15T12:24:00;10.50;;;5.57;;
8327;SDS011;4201;48.754;8.864;2023-04-15T12:26:27;11.23;;;4.47;;
8327;SDS011;4201;48.754;8.864;2023-04-15T12:28:54;18.40;;;5.00;;
8327;SDS011;4201;48.754;8.864;2023-04-15T12:31:22;8.33;;;5.37;;
8327;SDS011;4201;48.754;8.864;2023-04-15T12:33:50;9.80;;;5.50;;
8327;SDS011;4201;48.754;8.864;2023-04-15T12:36:16;14.60;;;7.00;;
8327;SDS011;4201;48.754;8.864;2023-04-15T12:38:42;8.33;;;5.47;;
8327;SDS011;4201;48.754;8.864;2023-04-15T12:41:08;11.63;;;5.87;;
8327;SDS011;4201;48.754;8.864;2023-04-15T12:43:35;11.87;;;6.70;;
8327;SDS011;4201;48.754;8.864;2023-04-15T12:46:01;11.83;;;5.40;;
8327;SDS011;4201;48.754;8.864;2023-04-15T12:48:30;9.40;;;5.77;;
8327;SDS011;4201;48.754;8.864;2023-04-15T12:50:57;11.77;;;5.70;;
8327;SDS011;4201;48.754;8.864;2023-04-15T12:53:23;12.33;;;6.00;;
8327;SDS011;4201;48.754;8.864;2023-04-15T12:55:50;7.60;;;4.80;;
8327;SDS011;4201;48.754;8.864;2023-04-15T12:58:16;5.27;;;2.90;;
8327;SDS011;4201;48.754;8.864;2023-04-15T13:00:42;7.10;;;4.03;;
8327;SDS011;4201;48.754;8.864;2023-04-15T13:03:09;8.87;;;4.97;;
8327;SDS011;4201;48.754;8.864;2023-04-15T13:05:37;7.07;;;4.40;;
8327;SDS011;4201;48.754;8.864;2023-04-15T13:08:04;6.97;;;4.53;;
8327;SDS011;4201;48.754;8.864;2023-04-15T13:10:30;9.70;;;5.93;;
8327;SDS011;4201;48.754;8.864;2023-04-15T13:12:57;10.10;;;5.63;;
8327;SDS011;4201;48.754;8.864;2023-04-15T13:15:23;9.87;;;5.87;;
8327;SDS011;4201;48.754;8.864;2023-04-15T13:17:50;7.60;;;4.70;;
8327;SDS011;4201;48.754;8.864;2023-04-15T13:20:16;5.27;;;3.67;;
8327;SDS011;4201;48.754;8.864;2023-04-15T13:22:44;11.10;;;6.10;;
8327;SDS011;4201;48.754;8.864;2023-04-15T13:25:17;8.40;;;5.60;;
8327;SDS011;4201;48.754;8.864;2023-04-15T13:27:43;8.40;;;6.67;;
8327;SDS011;4201;48.754;8.864;2023-04-15T13:30:09;7.47;;;6.07;;
8327;SDS011;4201;48.754;8.864;2023-04-15T13:32:36;9.60;;;6.47;;
8327;SDS011;4201;48.754;8.864;2023-04-15T13:35:02;17.17;;;11.20;;
8327;SDS011;4201;48.754;8.864;2023-04-15T13:37:29;12.90;;;9.10;;
8327;SDS011;4201;48.754;8.864;2023-04-15T13:39:57;10.30;;;7.37;;
8327;SDS011;4201;48.754;8.864;2023-04-15T13:42:23;18.00;;;16.20;;
8327;SDS011;4201;48.754;8.864;2023-04-15T13:44:49;28.50;;;25.70;;
8327;SDS011;4201;48.754;8.864;2023-04-15T13:47:16;10.80;;;5.10;;
8327;SDS011;4201;48.754;8.864;2023-04-15T13:49:42;10.20;;;9.10;;
8327;SDS011;4201;48.754;8.864;2023-04-15T13:52:08;9.53;;;5.33;;
8327;SDS011;4201;48.754;8.864;2023-04-15T13:54:35;7.23;;;4.60;;
8327;SDS011;4201;48.754;8.864;2023-04-15T13:57:02;5.70;;;4.33;;
8327;SDS011;4201;48.754;8.864;2023-04-15T13:59:29;7.10;;;3.97;;
8327;SDS011;4201;48.754;8.864;2023-04-15T14:01:55;8.13;;;4.60;;
8327;SDS011;4201;48.754;8.864;2023-04-15T14:04:21;6.20;;;3.80;;
8327;SDS011;4201;48.754;8.864;2023-04-15T14:06:47;5.57;;;3.80;;
8327;SDS011;4201;48.754;8.864;2023-04-15T14:09:14;6.40;;;3.87;;
8327;SDS011;4201;48.754;8.864;2023-04-15T14:11:40;6.87;;;3.60;;
8327;SDS011;4201;48.754;8.864;2023-04-15T14:14:08;6.17;;;4.27;;
8327;SDS011;4201;48.754;8.864;2023-04-15T14:16:34;7.50;;;4.23;;
8327;SDS011;4201;48.754;8.864;2023-04-15T14:19:00;4.43;;;3.60;;
8327;SDS011;4201;48.754;8.864;2023-04-15T14:21:27;7.07;;;3.33;;
8327;SDS011;4201;48.754;8.864;2023-04-15T14:23:55;4.70;;;3.07;;
8327;SDS011;4201;48.754;8.864;2023-04-15T14:26:22;4.93;;;3.50;;
8327;SDS011;4201;48.754;8.864;2023-04-15T14:28:48;6.87;;;2.93;;
8327;SDS011;4201;48.754;8.864;2023-04-15T14:31:16;6.30;;;3.80;;
8327;SDS011;4201;48.754;8.864;2023-04-15T14:33:42;5.47;;;3.80;;
8327;SDS011;4201;48.754;8.864;2023-04-15T14:36:08;3.93;;;3.00;;
8327;SDS011;4201;48.754;8.864;2023-04-15T14:38:35;3.90;;;2.87;;
8327;SDS011;4201;48.754;8.864;2023-04-15T14:41:02;5.93;;;3.50;;
8327;SDS011;4201;48.754;8.864;2023-04-15T14:43:28;6.83;;;3.93;;
8327;SDS011;4201;48.754;8.864;2023-04-15T14:45:55;7.27;;;3.40;;
8327;SDS011;4201;48.754;8.864;2023-04-15T14:48:22;5.63;;;3.77;;
8327;SDS011;4201;48.754;8.864;2023-04-15T14:50:48;10.93;;;4.37;;
8327;SDS011;4201;48.754;8.864;2023-04-15T14:53:15;6.87;;;3.73;;
8327;SDS011;4201;48.754;8.864;2023-04-15T14:55:41;11.13;;;6.50;;
8327;SDS011;4201;48.754;8.864;2023-04-15T14:58:08;11.13;;;4.70;;
8327;SDS011;4201;48.754;8.864;2023-04-15T15:00:34;5.73;;;3.67;;
8327;SDS011;4201;48.754;8.864;2023-04-15T15:03:03;6.20;;;4.73;;
8327;SDS011;4201;48.754;8.864;2023-04-15T15:05:31;8.67;;;4.37;;
8327;SDS011;4201;48.754;8.864;2023-04-15T15:07:58;8.13;;;4.57;;